North Bay Airport
CYYB : now visible

Airfield :











YOU CAN JOIN US ON...

 
LOGIN :

Register | Disclaimer

   EN    FR    IT 

 









Legend :    VFR   Marginal VFR   IFR   Intensive IFR   Very Intensive IFR
Visi :
Ceiling :
>= 8 km
>= 3000ft
5 to 8 km
1000 to 3000 ft
1500m to 5 km
500 to 1000 ft
800 to 1500m
200 to 500 ft
< 800m
< 200 ft
Symbols :   Thunderstorms  Fog  Heavy snow  Heavy precipitations  Wind > 20 kt






- Airport Elevation : 1215 ft
- IATA code : YYB


CYYB - North Bay

CURRENT METAR :
  • 050610Z AUTO 33006KT 7SM BKN005 OVC028 13/13 A2986 RMK SLP115 DENSITY ALT 1300FT

EXPIRED METARs :
  • 050555Z AUTO 33007KT 5SM BR OVC005 13/12 A2986 RMK SLP116 DENSITY ALT 1300FT
  • 050500Z AUTO 35008KT 9SM OVC005 13/12 A2986 RMK SLP116 DENSITY ALT 1300FT
  • 050415Z AUTO 34006KT 9SM OVC005 13/13 A2985 RMK SLP115 DENSITY ALT 1300FT
  • 050400Z AUTO 34008KT 9SM OVC007 13/13 A2986 RMK SLP116 DENSITY ALT 1300FT

TAF AMD TAF CYYB
Valid from the 05 at 04:00 until the 05 at 14:00 UTC


050433Z 0504/0514 34006KT 2SM -DZ -RA BR OVC005
TEMPO 0504/0512 P6SM NSW SCT005 OVC010
FM051200 30010KT P6SM SCT030
BECMG 0512/0514 26015KT RMK NXT FCST BY 050800Z
CZYZ FIR / North America



MET'MAP, your aeronautical weather chart ! - Copyright ORBIFLY December 2007 - Disclaimer

ORBIFLY MET'MAP TEAM :

Programming & Development : Alexandra Zaïnal
Concept & original design : Baudouin d'Aumeries
Assistance for programming : Marc-Olivier Méhu
Technical & hardware support : Manuel Goepfert

Contact : metmap@orbifly.com




SOURCES & CREDITS :

   NOAA       Earth
Advisory